createdAt,value
2023-05-21T00:04:59.096Z,19.02
2023-05-21T00:10:01.822Z,19.00
2023-05-21T00:15:06.690Z,18.98
2023-05-21T00:20:10.095Z,18.97
2023-05-21T00:25:13.260Z,18.97
2023-05-21T00:30:17.304Z,18.92
2023-05-21T00:35:20.149Z,18.91
2023-05-21T00:40:22.863Z,18.90
2023-05-21T00:45:26.913Z,18.88
2023-05-21T00:50:30.280Z,18.87
2023-05-21T00:55:33.341Z,18.86
2023-05-21T01:00:40.417Z,18.80
2023-05-21T01:05:45.192Z,18.81
2023-05-21T01:10:47.976Z,18.80
2023-05-21T01:15:52.406Z,18.81
2023-05-21T01:20:55.130Z,18.78
2023-05-21T01:25:59.164Z,18.79
2023-05-21T01:31:18.084Z,18.77
2023-05-21T01:36:26.188Z,18.73
2023-05-21T01:41:31.092Z,18.69
2023-05-21T01:46:36.042Z,18.73
2023-05-21T01:51:39.033Z,18.70
2023-05-21T01:56:43.141Z,18.68
2023-05-21T02:01:45.995Z,18.65
2023-05-21T02:06:48.712Z,18.64
2023-05-21T02:11:52.731Z,18.62
2023-05-21T02:16:55.467Z,18.58
2023-05-21T02:21:58.169Z,18.57
2023-05-21T02:27:02.842Z,18.55
2023-05-21T02:32:06.320Z,18.55
2023-05-21T02:37:09.680Z,18.54
2023-05-21T02:42:13.790Z,18.53
2023-05-21T02:47:16.556Z,18.51
2023-05-21T02:52:20.132Z,18.50
2023-05-21T02:57:24.325Z,18.49
2023-05-21T03:02:27.333Z,18.45
2023-05-21T03:07:30.633Z,18.45
2023-05-21T03:12:35.106Z,18.42
2023-05-21T03:17:37.869Z,18.41
2023-05-21T03:22:40.623Z,18.37
2023-05-21T03:27:44.636Z,18.37
2023-05-21T03:33:03.356Z,18.34
2023-05-21T03:38:06.144Z,18.34
2023-05-21T03:43:10.316Z,18.33
2023-05-21T03:48:13.479Z,18.31
2023-05-21T03:53:16.270Z,18.32
2023-05-21T03:58:20.473Z,18.32
2023-05-21T04:03:23.806Z,18.32
2023-05-21T04:08:26.838Z,18.30
2023-05-21T04:13:30.855Z,18.31
2023-05-21T04:18:34.197Z,18.31
2023-05-21T04:23:37.258Z,18.32
2023-05-21T04:28:47.781Z,18.34
2023-05-21T04:33:50.684Z,18.33
2023-05-21T04:38:53.390Z,18.34
2023-05-21T04:43:57.455Z,18.34
2023-05-21T04:49:03.870Z,18.34
2023-05-21T04:54:06.560Z,18.35
2023-05-21T04:59:12.102Z,18.33
2023-05-21T05:04:14.767Z,18.36
2023-05-21T05:09:17.426Z,18.39
2023-05-21T05:14:21.742Z,18.35
2023-05-21T05:19:24.651Z,18.35
2023-05-21T05:24:27.533Z,18.33
2023-05-21T05:29:31.633Z,18.42
2023-05-21T05:34:34.955Z,18.40
2023-05-21T05:39:37.777Z,18.42
2023-05-21T05:44:42.124Z,18.44
2023-05-21T05:49:44.895Z,18.55
2023-05-21T05:54:48.053Z,18.52
2023-05-21T05:59:52.094Z,18.58
2023-05-21T06:04:54.829Z,18.65
2023-05-21T06:09:57.596Z,18.65
2023-05-21T06:15:01.746Z,18.64
2023-05-21T06:20:07.164Z,18.64
2023-05-21T06:25:11.179Z,18.72
2023-05-21T06:30:15.656Z,18.83
2023-05-21T06:35:18.582Z,19.06
2023-05-21T06:40:21.645Z,19.19
2023-05-21T06:45:26.896Z,19.35
2023-05-21T06:50:34.667Z,19.54
2023-05-21T06:55:37.536Z,19.63
2023-05-21T07:00:52.981Z,19.57
2023-05-21T07:05:55.952Z,19.54
2023-05-21T07:10:58.768Z,19.51
2023-05-21T07:16:03.355Z,19.55
2023-05-21T07:21:06.230Z,19.60
2023-05-21T07:26:10.794Z,19.64
2023-05-21T07:31:14.957Z,19.65
2023-05-21T07:36:22.336Z,19.64
2023-05-21T07:41:25.057Z,19.66
2023-05-21T07:46:29.271Z,19.67
2023-05-21T07:51:33.953Z,19.70
2023-05-21T07:56:36.736Z,19.69
2023-05-21T08:01:43.375Z,19.70
2023-05-21T08:06:46.182Z,19.69
2023-05-21T08:11:48.918Z,19.75
2023-05-21T08:16:53.086Z,19.78
2023-05-21T08:21:56.358Z,19.79
2023-05-21T08:26:59.199Z,19.79
2023-05-21T08:32:03.310Z,19.82
2023-05-21T08:37:06.081Z,19.91
2023-05-21T08:42:37.918Z,19.92
2023-05-21T08:47:44.723Z,20.00
2023-05-21T08:52:48.035Z,20.01
2023-05-21T08:57:51.383Z,20.02
2023-05-21T09:02:56.352Z,20.03
2023-05-21T09:08:06.557Z,20.09
2023-05-21T09:13:17.254Z,20.09
2023-05-21T09:18:21.936Z,20.11
2023-05-21T09:23:33.575Z,20.10
2023-05-21T09:28:37.196Z,20.07
2023-05-21T09:33:47.007Z,20.07
2023-05-21T09:38:51.981Z,20.09
2023-05-21T09:44:00.139Z,20.06
2023-05-21T09:49:04.281Z,20.08
2023-05-21T09:54:07.931Z,20.08
2023-05-21T09:59:10.647Z,20.13
2023-05-21T10:04:15.002Z,20.15
2023-05-21T10:09:19.954Z,20.16
2023-05-21T10:14:24.515Z,20.15
2023-05-21T10:19:29.593Z,20.20
2023-05-21T10:24:33.149Z,20.18
2023-05-21T10:29:36.232Z,20.17
2023-05-21T10:34:40.540Z,20.17
2023-05-21T10:39:45.787Z,20.16
2023-05-21T10:45:01.712Z,20.16
2023-05-21T10:50:17.552Z,20.17
2023-05-21T10:55:34.133Z,20.19
2023-05-21T11:00:37.192Z,20.19
2023-05-21T11:05:42.692Z,20.20
2023-05-21T11:10:46.029Z,20.22
2023-05-21T11:16:15.942Z,20.23
2023-05-21T11:21:25.565Z,20.23
2023-05-21T11:26:29.231Z,20.25
2023-05-21T11:31:38.126Z,20.27
2023-05-21T11:36:43.263Z,20.29
2023-05-21T11:42:04.607Z,20.30
2023-05-21T11:47:08.583Z,20.32
2023-05-21T11:52:14.443Z,20.38
2023-05-21T11:57:18.996Z,20.37
2023-05-21T12:02:23.685Z,20.39
2023-05-21T12:07:36.387Z,20.39
2023-05-21T12:12:54.015Z,20.41
2023-05-21T12:17:58.173Z,20.42
2023-05-21T12:23:02.300Z,20.45
2023-05-21T12:28:05.512Z,20.46
2023-05-21T12:33:08.218Z,20.49
2023-05-21T12:38:12.289Z,20.50
2023-05-21T12:43:14.987Z,20.51
2023-05-21T12:48:20.070Z,20.53
2023-05-21T12:53:24.056Z,20.54
2023-05-21T12:58:26.915Z,20.56
2023-05-21T13:03:29.697Z,20.59
2023-05-21T13:08:34.623Z,20.60
2023-05-21T13:13:37.251Z,20.61
2023-05-21T13:18:39.904Z,20.63
2023-05-21T13:23:43.875Z,20.68
2023-05-21T13:28:46.804Z,20.69
2023-05-21T13:33:49.561Z,20.72
2023-05-21T13:38:53.653Z,20.74
2023-05-21T13:43:56.350Z,20.75
2023-05-21T13:48:59.093Z,20.77
2023-05-21T13:54:03.183Z,20.81
2023-05-21T13:59:05.879Z,20.81
2023-05-21T14:04:08.738Z,20.82
2023-05-21T14:09:12.971Z,20.82
2023-05-21T14:14:18.982Z,20.86
2023-05-21T14:19:23.309Z,20.88
2023-05-21T14:24:27.460Z,20.89
2023-05-21T14:29:30.142Z,20.90
2023-05-21T14:34:32.816Z,20.91
2023-05-21T14:39:36.842Z,20.92
2023-05-21T14:44:39.501Z,20.95
2023-05-21T14:49:42.173Z,20.97
2023-05-21T14:54:46.284Z,20.99
2023-05-21T14:59:49.059Z,21.01
2023-05-21T15:04:51.746Z,21.02
2023-05-21T15:09:55.789Z,21.04
2023-05-21T15:14:58.431Z,21.04
2023-05-21T15:20:04.290Z,21.06
2023-05-21T15:25:09.339Z,21.08
2023-05-21T15:30:12.695Z,21.09
2023-05-21T15:35:15.570Z,21.11
2023-05-21T15:40:19.789Z,21.11
2023-05-21T15:45:22.466Z,21.13
2023-05-21T15:50:25.375Z,21.15
2023-05-21T15:55:29.409Z,21.15
2023-05-21T16:00:32.053Z,21.18
2023-05-21T16:05:34.813Z,21.19
2023-05-21T16:10:39.892Z,21.20
2023-05-21T16:15:42.586Z,21.22
2023-05-21T16:20:45.222Z,21.23
2023-05-21T16:25:49.277Z,21.26
2023-05-21T16:30:52.118Z,21.27
2023-05-21T16:35:54.996Z,21.29
2023-05-21T16:40:59.092Z,21.30
2023-05-21T16:46:01.724Z,21.31
2023-05-21T16:51:04.560Z,21.33
2023-05-21T16:56:09.248Z,21.34
2023-05-21T17:01:11.924Z,21.35
2023-05-21T17:06:14.887Z,21.38
2023-05-21T17:11:19.591Z,21.39
2023-05-21T17:16:22.946Z,21.41
2023-05-21T17:21:26.387Z,21.41
2023-05-21T17:26:30.517Z,21.44
2023-05-21T17:31:33.246Z,21.44
2023-05-21T17:36:36.150Z,21.45
2023-05-21T17:41:42.695Z,21.47
2023-05-21T17:46:45.580Z,21.48
2023-05-21T17:51:48.761Z,21.50
2023-05-21T17:56:52.890Z,21.51
2023-05-21T18:01:55.518Z,21.52
2023-05-21T18:06:58.260Z,21.54
2023-05-21T18:12:04.197Z,21.54
2023-05-21T18:17:06.984Z,21.56
2023-05-21T18:22:09.686Z,21.58
2023-05-21T18:27:13.759Z,21.60
2023-05-21T18:32:17.264Z,21.62
2023-05-21T18:37:19.980Z,21.63
2023-05-21T18:42:23.952Z,21.65
2023-05-21T18:47:26.645Z,21.66
2023-05-21T18:52:29.431Z,21.67
2023-05-21T18:57:34.654Z,21.68
2023-05-21T19:02:37.651Z,21.69
2023-05-21T19:07:41.069Z,21.69
2023-05-21T19:12:45.702Z,21.71
2023-05-21T19:17:48.372Z,21.71
2023-05-21T19:22:51.525Z,21.72
2023-05-21T19:27:56.377Z,21.72
2023-05-21T19:32:59.152Z,21.73
2023-05-21T19:38:03.431Z,21.74
2023-05-21T19:43:09.198Z,21.75
2023-05-21T19:48:12.295Z,21.79
2023-05-21T19:53:15.041Z,21.80
2023-05-21T19:58:23.375Z,21.82
2023-05-21T20:03:26.217Z,21.81
2023-05-21T20:08:28.978Z,21.82
2023-05-21T20:13:33.174Z,21.83
2023-05-21T20:18:35.916Z,21.84
2023-05-21T20:23:38.702Z,21.85
2023-05-21T20:28:42.977Z,21.88
2023-05-21T20:33:46.306Z,21.90
2023-05-21T20:38:49.059Z,21.91
2023-05-21T20:43:53.068Z,21.93
2023-05-21T20:48:55.754Z,21.94
2023-05-21T20:53:58.532Z,21.98
2023-05-21T20:59:02.500Z,22.02
2023-05-21T21:04:05.658Z,22.06
2023-05-21T21:09:08.677Z,22.12
2023-05-21T21:14:13.611Z,22.13
2023-05-21T21:19:16.333Z,22.16
2023-05-21T21:24:19.042Z,22.16
2023-05-21T21:29:23.054Z,22.17
2023-05-21T21:34:25.723Z,22.17
2023-05-21T21:39:28.345Z,22.19
2023-05-21T21:44:32.341Z,22.19
2023-05-21T21:49:35.124Z,22.19
2023-05-21T21:54:37.812Z,22.22
2023-05-21T21:59:41.835Z,22.18
2023-05-21T22:04:44.833Z,22.22
2023-05-21T22:09:47.638Z,22.24
2023-05-21T22:14:51.948Z,22.21
2023-05-21T22:19:54.604Z,22.22
2023-05-21T22:24:57.349Z,22.22
2023-05-21T22:30:01.587Z,22.22
2023-05-21T22:35:04.524Z,22.23
2023-05-21T22:40:08.433Z,22.22
2023-05-21T22:45:12.838Z,22.22
2023-05-21T22:50:16.647Z,22.21
2023-05-21T22:55:19.289Z,22.21
2023-05-21T23:00:23.409Z,22.20
2023-05-21T23:05:26.121Z,22.21
2023-05-21T23:10:28.753Z,22.20
2023-05-21T23:15:32.782Z,22.18
2023-05-21T23:20:35.473Z,22.17
2023-05-21T23:25:38.241Z,22.14
2023-05-21T23:30:42.216Z,22.12
2023-05-21T23:35:44.893Z,22.09
2023-05-21T23:40:47.515Z,22.03
2023-05-21T23:45:51.570Z,22.02
2023-05-21T23:50:54.342Z,22.03
2023-05-21T23:55:56.964Z,22.01
